Terminal Aerodrome Forecast
Issued by NWS

Home | Current Version | Previous Version | Text Only | Print | Product List | Glossary On
Versions: 1 2 3 4 5 6 7 8 9 10 11 12 13 14 15
000
FTUS45 KTFX 010520
TAFLWT
TAF
KLWT 010520Z 0106/0206 10007KT P6SM SCT050 BKN070
     FM011100 12006KT P6SM SCT070 BKN120
     FM011700 09005KT P6SM SCT120
     FM020100 13004KT P6SM SKC=

USA.gov is the U.S. government's official web portal to all federal, state and local government web resources and services.